createdAt,value
2022-12-14T00:02:26.876Z,80.40
2022-12-14T00:07:29.895Z,80.44
2022-12-14T00:12:32.740Z,80.46
2022-12-14T00:17:35.027Z,80.43
2022-12-14T00:22:37.211Z,80.45
2022-12-14T00:27:44.711Z,80.06
2022-12-14T00:32:47.864Z,80.06
2022-12-14T00:37:50.075Z,80.14
2022-12-14T00:42:52.467Z,80.07
2022-12-14T00:47:55.175Z,79.80
2022-12-14T00:52:57.413Z,80.12
2022-12-14T00:57:59.633Z,79.72
2022-12-14T01:03:02.596Z,79.53
2022-12-14T01:08:05.302Z,79.31
2022-12-14T01:13:07.546Z,79.45
2022-12-14T01:18:09.870Z,79.38
2022-12-14T01:23:12.065Z,79.46
2022-12-14T01:28:14.351Z,79.44
2022-12-14T01:33:16.773Z,79.35
2022-12-14T01:38:19.075Z,79.04
2022-12-14T01:43:21.339Z,79.05
2022-12-14T01:48:24.118Z,79.08
2022-12-14T01:53:26.742Z,78.70
2022-12-14T01:58:30.661Z,78.93
2022-12-14T02:03:58.831Z,78.86
2022-12-14T02:09:05.905Z,78.91
2022-12-14T02:14:08.238Z,78.83
2022-12-14T02:19:10.606Z,78.83
2022-12-14T02:24:34.850Z,78.89
2022-12-14T02:29:42.931Z,78.88
2022-12-14T02:34:59.949Z,78.98
2022-12-14T02:40:28.250Z,78.82
2022-12-14T02:45:53.764Z,78.73
2022-12-14T02:51:22.781Z,78.59
2022-12-14T02:56:30.998Z,78.74
2022-12-14T03:01:35.418Z,78.47
2022-12-14T03:06:37.933Z,78.71
2022-12-14T03:11:48.779Z,78.29
2022-12-14T03:16:52.529Z,78.20
2022-12-14T03:22:06.487Z,78.16
2022-12-14T03:27:14.364Z,78.58
2022-12-14T03:32:19.717Z,78.69
2022-12-14T03:37:26.021Z,78.46
2022-12-14T03:42:40.360Z,78.59
2022-12-14T03:48:05.197Z,78.42
2022-12-14T03:53:15.304Z,78.02
2022-12-14T03:58:20.919Z,78.60
2022-12-14T04:03:31.139Z,78.21
2022-12-14T04:09:11.734Z,77.85
2022-12-14T04:14:33.682Z,78.09
2022-12-14T04:19:42.751Z,78.21
2022-12-14T04:25:29.610Z,78.57
2022-12-14T04:30:34.804Z,78.34
2022-12-14T04:35:41.806Z,78.15
2022-12-14T04:40:48.548Z,78.27
2022-12-14T04:46:05.705Z,77.82
2022-12-14T04:51:15.216Z,78.12
2022-12-14T04:56:22.787Z,78.15
2022-12-14T05:02:06.941Z,77.84
2022-12-14T05:07:19.336Z,77.76
2022-12-14T05:12:27.915Z,77.51
2022-12-14T05:17:30.408Z,77.51
2022-12-14T05:22:32.797Z,77.33
2022-12-14T05:27:35.223Z,77.17
2022-12-14T05:32:37.579Z,77.38
2022-12-14T05:37:40.772Z,77.39
2022-12-14T05:42:46.067Z,76.92
2022-12-14T05:47:51.170Z,77.10
2022-12-14T05:52:53.959Z,77.26
2022-12-14T05:57:56.604Z,77.19
2022-12-14T06:02:59.138Z,77.32
2022-12-14T06:08:01.530Z,77.22
2022-12-14T06:13:03.782Z,76.90
2022-12-14T06:18:06.172Z,77.51
2022-12-14T06:23:08.546Z,76.84
2022-12-14T06:28:11.102Z,77.38
2022-12-14T06:33:13.376Z,77.28
2022-12-14T06:38:17.437Z,77.44
2022-12-14T06:43:19.781Z,77.30
2022-12-14T06:48:22.147Z,77.45
2022-12-14T06:53:24.740Z,77.27
2022-12-14T06:58:32.381Z,77.66
2022-12-14T07:03:36.204Z,77.64
2022-12-14T07:08:39.123Z,77.54
2022-12-14T07:13:41.480Z,77.66
2022-12-14T07:18:43.918Z,77.67
2022-12-14T07:23:47.149Z,77.69
2022-12-14T07:28:50.233Z,77.47
2022-12-14T07:33:57.690Z,77.48
2022-12-14T07:39:00.033Z,77.76
2022-12-14T07:44:02.357Z,77.84
2022-12-14T07:49:04.733Z,77.83
2022-12-14T07:54:07.662Z,77.47
2022-12-14T07:59:14.827Z,77.91
2022-12-14T08:04:18.990Z,77.83
2022-12-14T08:09:21.446Z,77.60
2022-12-14T08:14:23.887Z,77.75
2022-12-14T08:19:26.434Z,77.76
2022-12-14T08:24:28.730Z,78.01
2022-12-14T08:29:30.967Z,77.99
2022-12-14T08:34:33.359Z,77.88
2022-12-14T08:39:35.768Z,77.74
2022-12-14T08:44:38.024Z,77.95
2022-12-14T08:49:41.920Z,78.20
2022-12-14T08:54:44.281Z,77.67
2022-12-14T09:00:02.701Z,78.19
2022-12-14T09:05:06.452Z,78.16
2022-12-14T09:10:08.870Z,78.00
2022-12-14T09:15:12.344Z,78.09
2022-12-14T09:20:14.773Z,78.19
2022-12-14T09:25:17.135Z,77.83
2022-12-14T09:30:26.186Z,78.03
2022-12-14T09:35:30.324Z,77.72
2022-12-14T09:40:34.071Z,77.71
2022-12-14T09:45:50.189Z,78.05
2022-12-14T09:50:54.667Z,78.25
2022-12-14T09:55:58.580Z,78.35
2022-12-14T10:01:25.206Z,78.61
2022-12-14T10:06:54.040Z,78.71
2022-12-14T10:12:17.030Z,78.83
2022-12-14T10:17:30.203Z,78.66
2022-12-14T10:22:36.382Z,78.67
2022-12-14T10:28:09.252Z,78.76
2022-12-14T10:33:29.856Z,79.18
2022-12-14T10:38:44.495Z,78.96
2022-12-14T10:44:00.378Z,79.08
2022-12-14T10:49:12.811Z,79.34
2022-12-14T10:55:00.231Z,79.33
2022-12-14T11:00:08.896Z,78.90
2022-12-14T12:46:13.634Z,77.98
2022-12-14T12:51:19.826Z,77.56
2022-12-14T12:56:48.110Z,77.61
2022-12-14T13:01:54.241Z,77.25
2022-12-14T13:07:00.438Z,77.72
2022-12-14T13:12:03.599Z,77.44
2022-12-14T13:17:08.208Z,76.83
2022-12-14T13:22:15.986Z,76.86
2022-12-14T13:27:40.987Z,77.00
2022-12-14T13:32:47.443Z,77.18
2022-12-14T13:38:02.391Z,76.83
2022-12-14T13:43:48.350Z,76.82
2022-12-14T13:48:53.875Z,77.00
2022-12-14T13:53:59.461Z,76.66
2022-12-14T13:59:27.225Z,77.37
2022-12-14T14:04:31.076Z,77.39
2022-12-14T14:09:34.297Z,77.43
2022-12-14T14:14:36.498Z,77.54
2022-12-14T14:19:40.293Z,77.15
2022-12-14T14:24:52.330Z,77.56
2022-12-14T14:29:55.369Z,77.53
2022-12-14T14:35:00.521Z,77.45
2022-12-14T14:40:23.927Z,78.05
2022-12-14T14:45:39.777Z,77.55
2022-12-14T14:50:43.790Z,77.27
2022-12-14T14:55:58.671Z,77.73
2022-12-14T15:01:12.635Z,78.17
2022-12-14T15:06:29.312Z,78.19
2022-12-14T15:11:42.193Z,78.28
2022-12-14T15:16:46.141Z,78.25
2022-12-14T15:22:13.319Z,78.29
2022-12-14T15:27:31.130Z,78.62
2022-12-14T15:32:33.897Z,78.16
2022-12-14T15:37:52.440Z,78.32
2022-12-14T15:43:13.971Z,78.27
2022-12-14T15:48:31.517Z,78.61
2022-12-14T15:53:43.709Z,78.50
2022-12-14T15:58:53.919Z,78.46
2022-12-14T16:04:00.748Z,78.30
2022-12-14T16:09:19.270Z,78.62
2022-12-14T16:14:44.801Z,78.14
2022-12-14T16:20:00.300Z,78.30
2022-12-14T16:25:06.260Z,78.65
2022-12-14T16:30:23.995Z,78.53
2022-12-14T16:35:26.837Z,78.27
2022-12-14T16:40:34.219Z,78.72
2022-12-14T16:46:05.731Z,78.75
2022-12-14T16:51:33.040Z,79.04
2022-12-14T16:56:45.669Z,78.63
2022-12-14T17:01:50.765Z,78.67
2022-12-14T17:06:56.751Z,78.41
2022-12-14T17:12:02.086Z,78.59
2022-12-14T17:17:10.278Z,78.53
2022-12-14T17:22:34.048Z,79.00
2022-12-14T17:27:49.514Z,78.86
2022-12-14T17:32:58.072Z,79.04
2022-12-14T17:38:12.031Z,79.13
2022-12-14T17:43:28.678Z,78.85
2022-12-14T17:48:47.862Z,78.97
2022-12-14T17:54:05.288Z,78.84
2022-12-14T17:59:22.753Z,78.95
2022-12-14T18:04:50.339Z,78.85
2022-12-14T18:10:21.059Z,78.53
2022-12-14T18:15:41.036Z,78.69
2022-12-14T18:20:54.972Z,78.46
2022-12-14T18:26:03.783Z,78.25
2022-12-14T18:31:10.077Z,78.25
2022-12-14T18:36:40.351Z,78.54
2022-12-14T18:41:48.613Z,78.22
2022-12-14T18:47:14.601Z,78.44
2022-12-14T18:52:23.956Z,78.34
2022-12-14T18:57:31.554Z,78.27
2022-12-14T19:03:05.501Z,78.15
2022-12-14T19:08:15.910Z,78.12
2022-12-14T19:13:25.695Z,78.14
2022-12-14T19:18:34.655Z,78.16
2022-12-14T19:23:46.432Z,78.00
2022-12-14T19:28:53.093Z,77.87
2022-12-14T19:34:12.065Z,77.80
2022-12-14T19:39:16.887Z,77.80
2022-12-14T19:44:24.752Z,77.61
2022-12-14T19:49:31.133Z,77.62
2022-12-14T19:54:47.506Z,77.43
2022-12-14T19:59:54.345Z,77.62
2022-12-14T20:05:00.329Z,77.51
2022-12-14T20:10:08.923Z,77.51
2022-12-14T20:15:14.025Z,77.48
2022-12-14T20:20:23.225Z,77.12
2022-12-14T20:25:40.011Z,77.08
2022-12-14T20:31:16.193Z,77.25
2022-12-14T20:36:29.602Z,77.43
2022-12-14T20:41:41.939Z,77.26
2022-12-14T20:46:56.105Z,77.33
2022-12-14T20:52:22.992Z,77.72
2022-12-14T21:03:12.313Z,77.03
2022-12-14T21:08:23.507Z,77.11
2022-12-14T21:13:34.417Z,77.29
2022-12-14T21:18:39.836Z,77.22
2022-12-14T21:23:46.628Z,77.26
2022-12-14T21:29:01.153Z,77.40
2022-12-14T21:34:10.853Z,77.74
2022-12-14T21:39:36.397Z,77.90
2022-12-14T21:44:48.935Z,77.15
2022-12-14T21:49:55.748Z,77.11
2022-12-14T21:55:02.685Z,77.04
2022-12-14T22:00:17.852Z,77.25
2022-12-14T22:05:45.046Z,77.22
2022-12-14T22:12:03.519Z,77.79
2022-12-14T22:17:22.644Z,77.75
2022-12-14T22:22:31.322Z,77.47
2022-12-14T22:27:38.131Z,77.32
2022-12-14T22:32:55.019Z,77.17
2022-12-14T22:38:07.179Z,77.92
2022-12-14T22:43:10.816Z,77.64
2022-12-14T22:48:21.745Z,77.55
2022-12-14T22:53:56.756Z,77.64
2022-12-14T22:59:20.628Z,77.98
2022-12-14T23:04:27.816Z,77.50
2022-12-14T23:09:58.123Z,77.80
2022-12-14T23:15:22.255Z,78.18
2022-12-14T23:20:46.974Z,77.77
2022-12-14T23:26:09.804Z,77.30
2022-12-14T23:31:31.731Z,77.38
2022-12-14T23:36:54.181Z,77.48
2022-12-14T23:42:16.593Z,77.65
2022-12-14T23:47:40.317Z,77.58
2022-12-14T23:53:01.415Z,77.54
2022-12-14T23:58:23.793Z,77.74
